Terminal Aerodrome Forecast
Issued by NWS Newport/Morehead City, NC

Home | Current Version | Previous Version | Graphics & Text | Print | Product List | Glossary On
Versions: 1 2 3 4 5 6 7 8 9 10 11 12 13 14 15 16 17
000
FTUS42 KMHX 232300 RRA
TAFEWN
TAF
KEWN 232347Z 2400/2424 10008KT 5SM RA BR OVC008
     FM240800 17012G18KT 2SM RA BR OVC004
     FM241400 31012G22KT 3SM -RA BR OVC006
     FM242000 30010G20KT P6SM BKN025=

USA.gov is the U.S. government's official web portal to all federal, state and local government web resources and services.